Aviation Digital Data Service (ADDS)

Output produced by METARs form (0726 UTC 30 October 2020)
found at http://www.aviationweather.gov/metar/data/
 
TAF CYYT 300541Z 3006/3106 29012G22KT P6SM FEW020 BKN200 
     TEMPO 3006/3011 BKN020 BKN200 
     FM301100 30015G25KT P6SM BKN180 
     FM301700 31012G22KT P6SM SCT030 SCT160 
     FM302000 34012G22KT P6SM BKN030 RMK NXT FCST BY 301200Z
       
CYYR 300446Z 26018KT 6SM -SHSN DRSN FEW023 OVC050 M04/M05 A2949 RMK SC2SC6 SLP991
TAF CYYR 300530Z 3006/3106 27015G30KT P6SM FEW020 BKN050 
     TEMPO 3006/3011 3SM -SHSN BKN020 OVC050 
     FM301200 28015G30KT P6SM SCT025 
     BECMG 3013/3015 28010G20KT 
     BECMG 3022/3024 26007KT RMK NXT FCST BY 301200Z
       
BGSF 300650Z AUTO 06007KT 9999NDV -SHSN FEW022/// OVC028/// M10/M13 Q0998
TAF BGSF 300500Z 3006/3023 06008KT 9999 BKN030 
     TEMPO 3006/3023 7000 -SN BKN020
       
BGGH 300650Z AUTO 04007KT 9999NDV SCT082/// SCT200/// M05/M08 Q0994
TAF BGGH 292053Z 2921/3002 06008KT 9999 FEW015 BKN100 
     TEMPO 2921/3002 BKN060
       
BGBW 300650Z AUTO 22003KT 9999NDV FEW015/// BKN037/// OVC045/// M02/M04 Q0992
TAF BGBW 292318Z 3000/3004 VRB02KT 9999 FEW012 BKN018 
     TEMPO 3000/3004 4500 -SN SCT008 BKN012
       
BGKK 300650Z AUTO VRB04G15KT 3500NDV -RASN OVC011/// 01/M01 Q0989
BIRK 300700Z 09009KT 9999 -RA BKN025 OVC055 05/02 Q0980
TAF BIRK 300433Z 3006/3106 10013KT 9999 -SHRA BKN022 TX06/3014Z TN03/3009Z 
     TEMPO 3006/3008 5000 RA BKN014 
     PROB40 
     TEMPO 3008/3011 BKN008 
     TEMPO 3017/3022 5000 RA BKN014 
     BECMG 3022/3100 20015KT 
     TEMPO 3100/3106 20018G28KT
       
BIKF 300700Z 10009KT 9999 SCT010 BKN025 BKN036 05/04 Q0980
TAF BIKF 300434Z 3006/3106 11014KT 9999 -SHRA SCT015 BKN025 TX06/3014Z
TN04/3006Z 
     TEMPO 3013/3021 11018G30KT 5000 SHRA BKN012 
     BECMG 3021/3023 21017KT 
     TEMPO 3100/3106 20020G30KT
       
EGPC 300720Z AUTO 26010KT 9999 SCT041/// 09/07 Q0998
TAF EGPC 300500Z 3006/3015 26012KT 9999 SCT030 
     TEMPO 3006/3015 6000 SHRA 
     PROB40 
     TEMPO 3006/3012 25015G25KT
       
EDDF 300720Z 21012KT 9999 FEW008 BKN044 13/12 Q1021 NOSIG
TAF EDDF 300500Z 3006/3112 21010KT 9999 BKN025 
     PROB30 
     TEMPO 3009/3016 22015G25KT 
     BECMG 3022/3101 19005KT 
     BECMG 3105/3108 SCT040 
     PROB30 
     TEMPO 3105/3108 3000 BR
       
EDSB 300720Z 21014KT 9999 -SHRA BKN028 OVC044 13/11 Q1024
TAF EDSB 300500Z 3006/3106 21012KT 9999 BKN040 
     BECMG 3016/3018 20005KT 
     PROB40 
     TEMPO 3102/3106 0400 FG VV001